Almaty, Kazakhstan
Current Conditions -  °F | °C
As of 12:30 AM on Monday 22 Dec 2014 (Local Time) from UAAA Reporting Station
Smoke Smoke  
Wind Chill: 19°   Ceiling: 10000
Heat Index: 19°   Visibility: 0.18mi
Dew Point: 16°   Wind: 2mph
Humidity: 86%   Direction: 110°ESE
Pressure: 30.09"   Gusts: NA
Location:  43.32°N, 76.92°E
Report Text: UAAA 211830Z 11001MPS 0300 R23R/1300D R23L/0900U BR FU BKN100M07/M09 Q1019 R88/81//60 NOSIG
Loading
Personal Weather Stations






























Interactive Weather Map New forecast layout! Learn more

10-Day Weather Forecast

Advertisements
Track Severe Weather on mobile